Página principal
METAR-TAF:

METAR-TAF

Aeroportos :

Fergana, Uzbequistão

latitude: 40-21-32N, longitude: 071-44-42E, altura: 625 m

Observação actual do tempo

O boletim foi feito há 7 horas e 28 minutos, às 15:00 UTC
Vento 6 kt de sul
Temperatura 6°C
Humidade 61%
Pressão 1025 hPa
Visibilidade: 2300 m
bruma

METAR: UTFF 151500Z 19006KT 2300 HZ NSC 06/M01 Q1025 R18/CLRD70

Hora: 03:28 (22:28 UTC)

Previsão

O boletim foi feito há 13 horas e 28 minutos, às 09:00 UTC
Previsão válida de 15 às 10 UTC a 15 às 19 UTC
Vento 10 kt de nor-noroeste
Visibilidade: 5000 m
Poucas nuvensa uma altura de 5000 ft, Cumulonimbus.
neblina
Temporariamente
de 15 às 10 UTC a 15 às 19 UTC
Vento 12 kt de oeste
Visibilidade: 2000 m
Nuvens dispersasa uma altura de 3000 ft, Cumulonimbus.
neblina

TAF: UTFF 150900Z 1510/1519 34010KT 5000 BR FEW050CB TEMPO 1510/1519 28012KT 2000 BR SCT030CB

Observações e previsões do tempo de mais de 4000 aeroportos (mensagens METAR e TAF).

As estações disponíveis são os pontos amarelos e vermelhos sobre o mapa.

Mova o rato sobre o mapa para ver o nome da estação.

Depois clique no ponto para visualizar as observações e previsões meteorológicas.

Para alterar o mapa : clique nos botões verdes com uma cruz preta para aumentar o zoom; no botão verde com uma pitada de zoom; ou nas setas verdes para mapas adjacentes.


METAR-TAF: